Latest Coastal Weather Observations for Sydney Airport

IDN60701

Issued at 7:15 pm EDT Thursday 27 November 2014 (issued every 10 minutes, with the page automatically refreshed every 10 minutes)

About coastal observations | Map of coastal stations | Coastal observations for NSW | Marine services | Other Formats
Station Details ID: 066037 Name: SYDNEY AIRPORT AMO Lat: -33.95 Lon: 151.17 Height: 6.0 m
Data from the previous 72 hours. | See also: Recent months at Sydney Airport
Date/Time
EDT
Temp

°C
Wind Pressure Rain
since 9am
mm
Weather Cloud Vis
km
Sea
Height
m
Swell
Dir
 
Speed
knots
Gust
knots
hPa Trend Height
m
Period
s
Dir
27/07:00pm 19.1 SSE 12 15 1022.9 - 0.0 - Partly cloudy 10 - - - -
27/06:30pm 19.1 SE 12 14 1022.7 - 0.0 - Partly cloudy 10 - - - -
27/06:00pm 19.0 SSE 12 15 1022.5 R 0.0 Drizzle Mostly cloudy 20 - - - -
27/05:30pm 19.5 SE 11 16 1022.5 - 0.0 Drizzle Mostly clear 10 - - - -
27/05:00pm 19.6 SSE 13 16 1022.4 - 0.0 - Partly cloudy 10 - - - -
27/04:30pm 19.8 S 14 18 1022.4 - 0.0 - Partly cloudy 10 - - - -
27/04:00pm 20.5 SE 11 15 1022.4 - 0.0 - Partly cloudy 10 - - - -
27/03:30pm 19.5 SSE 14 17 1022.6 - 0.0 - Partly cloudy 10 - - - -
27/03:00pm 20.3 SE 12 16 1022.5 R 0.0 Fine Mostly cloudy 20 - - - -
27/02:30pm 20.9 SSE 13 16 1022.4 - 0.0 - Partly cloudy 10 - - - -
27/02:00pm 20.5 SSE 14 18 1022.4 - 0.0 - Partly cloudy 10 - - - -
27/01:30pm 20.6 SSE 14 17 1022.4 - 0.0 - Partly cloudy 10 - - - -
27/01:00pm 19.6 SSE 15 18 1022.5 - 0.0 - Partly cloudy 10 - - - -
27/12:30pm 19.7 SSE 15 19 1022.6 - 0.0 - Partly cloudy 10 - - - -
27/12:00pm 20.1 SSE 14 17 1022.5 R 0.0 Drizzle Mostly cloudy 10 - - - -
27/11:30am 19.7 SE 13 16 1022.6 - 0.0 Drizzle Mostly clear 10 - - - -
27/11:00am 18.9 SE 13 18 1022.6 - 0.0 - Mostly clear 10 - - - -
27/10:30am 18.4 SSE 16 19 1022.4 - 0.0 - Mostly clear 10 - - - -
27/10:00am 18.8 SSE 16 21 1022.3 - 0.0 - Mostly clear 8 - - - -
27/09:30am 19.1 S 15 17 1022.0 - 0.0 - Mostly clear 10 - - - -
27/09:00am 18.8 S 17 21 1022.2 R 0.0 Distant precip. Mostly cloudy 15 - - - -
27/08:30am 19.6 S 15 20 1021.8 - 0.0 - Mostly clear 10 - - - -
27/08:00am 19.1 S 18 22 1021.4 - 0.0 - Mostly clear 10 - - - -
27/07:30am 18.7 S 20 25 1020.9 - 0.0 Showers Mostly clear 10 - - - -
27/07:00am 19.9 SSE 19 23 1020.5 - 0.0 - Mostly clear 10 - - - -
27/06:30am 19.9 SE 19 22 1020.2 - 0.0 - Mostly clear 10 - - - -
27/06:00am 19.6 SE 19 23 1019.7 R 0.0 Distant precip. Mostly cloudy 20 - - - -
27/05:30am 19.4 SE 20 26 1019.3 - 0.0 - Mostly clear 10 - - - -
27/05:00am 19.5 SE 19 25 1018.8 - 0.0 - Mostly clear 10 - - - -
27/04:30am 19.4 SE 19 25 1018.4 - 0.0 - Partly cloudy 10 - - - -
27/04:00am 19.5 SE 17 21 1018.1 - 0.0 - Mostly clear 10 - - - -
27/03:30am 20.3 SSE 9 15 1018.0 - 0.0 - Partly cloudy 10 - - - -
27/03:00am 20.2 SE 7 8 1018.1 R 0.0 Distant precip. Mostly cloudy 20 - - - -
27/02:30am 20.3 SE 6 7 1018.2 - 0.0 - Mostly clear 10 - - - -
27/02:00am 20.2 SE 7 8 1018.3 - 0.0 - Mostly clear 10 - - - -
27/01:30am 20.4 SE 7 8 1018.6 - 0.0 - Mostly clear 10 - - - -
27/01:00am 20.3 ESE 7 8 1018.8 - 0.0 - Mostly clear 10 - - - -
27/12:30am 20.2 ESE 6 7 1019.0 - 0.0 - Mostly clear 10 - - - -
27/12:00am 20.4 E 7 9 1019.1 R 0.0 HAZE Mostly clear 10 - - - -
 
Date/Time
EDT
Temp

°C
Wind Pressure Rain
since 9am
mm
Weather Cloud Vis
km
Sea
Height
m
Swell
Dir
 
Speed
knots
Gust
knots
hPa Trend Height
m
Period
s
Dir
26/11:30pm 20.5 E 8 9 1019.0 - 0.0 - Mostly clear 10 - - - -
26/11:00pm 20.6 E 9 12 1018.5 - 0.0 - Mostly clear 10 - - - -
26/10:30pm 21.2 E 10 11 1018.6 - 0.0 - Mostly clear 10 - - - -
26/10:00pm 21.3 E 9 12 1019.0 - 0.0 - Mostly clear 10 - - - -
26/09:30pm 21.0 E 10 14 1018.6 - 0.0 - Mostly clear 10 - - - -
26/09:00pm 21.1 E 11 14 1018.2 R 0.0 Haze Partly cloudy 20 - - - -
26/08:30pm 21.3 ENE 11 15 1017.9 - 0.0 - Mostly clear 10 - - - -
26/08:00pm 21.6 ENE 12 15 1017.5 - 0.0 - Mostly clear 10 - - - -
26/07:30pm 22.0 ENE 14 18 1017.2 - 0.0 - Mostly clear 10 - - - -
26/07:00pm 23.0 ENE 17 22 1016.7 - 0.0 - Mostly clear 10 - - - -
26/06:30pm 22.5 NE 16 21 1016.1 - 0.0 - Mostly clear 10 - - - -
26/06:00pm 23.7 ENE 17 22 1015.7 F 0.0 Haze Partly cloudy 20 - - - -
26/05:30pm 22.9 NE 17 22 1015.6 - 0.0 - Mostly clear 10 - - - -
26/05:00pm 24.6 NNE 18 22 1015.5 - 0.0 - Mostly clear 10 - - - -
26/04:30pm 24.2 ENE 19 25 1015.6 - 0.0 - Mostly clear 10 - - - -
26/04:00pm 23.6 ENE 19 23 1015.8 - 0.0 - Mostly clear 10 - - - -
26/03:30pm 22.8 ENE 17 21 1016.3 - 0.0 - Partly cloudy 10 - - - -
26/03:00pm 22.7 NE 14 17 1016.7 F 0.0 Haze Mostly cloudy 20 - - - -
26/02:30pm 23.4 NE 16 21 1016.8 - 0.0 - Partly cloudy 10 - - - -
26/02:00pm 23.6 NE 17 21 1016.9 - 0.0 - Partly cloudy 10 - - - -
26/01:30pm 24.9 NNE 16 19 1017.3 - 0.0 - Partly cloudy 10 - - - -
26/01:00pm 23.0 NNE 14 18 1017.8 - 0.0 - Partly cloudy 10 - - - -
26/12:30pm 24.0 NE 12 15 1018.0 - 0.0 - Partly cloudy 10 - - - -
26/12:00pm 22.9 NNE 12 16 1018.5 F 0.0 Haze Mostly cloudy 20 - - - -
26/11:30am 23.3 NNE 12 16 1018.9 - 0.0 - Partly cloudy 10 - - - -
26/11:00am 23.9 NE 13 18 1019.0 - 0.0 - Partly cloudy 10 - - - -
26/10:30am 21.6 NE 12 18 1019.1 - 0.0 - Partly cloudy 10 - - - -
26/10:00am 22.7 NNE 10 14 1019.3 - 0.0 - Mostly clear 10 - - - -
26/09:30am 22.1 NE 9 15 1019.4 - 0.0 - Mostly clear 10 - - - -
26/09:00am 23.6 NNE 11 15 1019.7 F 0.0 Haze Mostly cloudy 2 - - - -
26/08:30am 21.9 NNE 13 15 1019.7 - 0.0 - Mostly clear 10 - - - -
26/08:00am 22.1 NNE 11 14 1019.6 - 0.0 - Mostly clear 10 - - - -
26/07:30am 21.8 NE 11 14 1019.3 - 0.0 - Mostly clear 10 - - - -
26/07:00am 21.1 NNE 11 15 1019.2 - 0.0 - Mostly clear 10 - - - -
26/06:30am 20.6 NE 10 14 1019.2 - 0.0 - Mostly clear 10 - - - -
26/06:00am 19.9 NE 11 14 1019.1 F 0.0 Fine Mostly cloudy 25 - - - -
26/05:30am 19.5 NE 11 14 1019.0 - 0.0 - Mostly clear 10 - - - -
26/05:00am 19.4 NE 14 18 1018.8 - 0.0 - Mostly clear 10 - - - -
26/04:30am 19.2 NE 12 15 1018.8 - 0.0 - Cloudy 10 - - - -
26/04:00am 19.2 NE 13 17 1019.0 - 0.0 - Mostly clear 10 - - - -
26/03:30am 19.4 ENE 13 15 1019.0 - 0.0 - Mostly clear 10 - - - -
26/03:00am 19.3 ENE 11 14 1019.3 F 0.0 Fine Mostly cloudy 20 - - - -
26/02:30am 19.4 E 9 12 1019.4 - 0.0 - Mostly cloudy 10 - - - -
26/02:00am 19.4 E 12 15 1019.6 - 0.0 - Mostly cloudy 10 - - - -
26/01:30am 19.4 E 11 14 1020.0 - 0.0 - Mostly cloudy 10 - - - -
26/01:00am 19.5 E 11 15 1020.4 - 0.0 - Mostly cloudy 10 - - - -
26/12:30am 19.6 E 11 15 1020.7 - 0.0 - Mostly cloudy 10 - - - -
26/12:00am 19.6 E 10 14 1020.7 R 0.0 Fine Mostly cloudy 20 - - - -
 
Date/Time
EDT
Temp

°C
Wind Pressure Rain
since 9am
mm
Weather Cloud Vis
km
Sea
Height
m
Swell
Dir
 
Speed
knots
Gust
knots
hPa Trend Height
m
Period
s
Dir
25/11:30pm 19.7 E 10 13 1020.8 - 0.0 - Mostly cloudy 10 - - - -
25/11:00pm 19.7 E 9 13 1020.8 - 0.0 - Mostly cloudy 10 - - - -
25/10:30pm 19.9 E 9 11 1020.9 - 0.0 - Mostly cloudy 10 - - - -
25/10:00pm 19.9 ESE 10 12 1020.5 - 0.0 - Mostly cloudy 10 - - - -
25/09:30pm 19.8 E 9 12 1020.2 - 0.0 - Mostly cloudy 10 - - - -
25/09:00pm 19.8 ESE 10 14 1019.9 R 0.0 Fine Mostly cloudy 20 - - - -
25/08:30pm 19.9 E 11 15 1019.4 - 0.0 - Mostly cloudy 10 - - - -
25/08:00pm 19.8 E 11 16 1019.1 - 0.0 - Mostly cloudy 10 - - - -
25/07:30pm 20.0 E 12 16 1018.6 - 0.0 - Mostly cloudy 10 - - - -
25/07:00pm 20.3 ESE 12 15 1018.0 - 0.0 - Partly cloudy 10 - - - -
25/06:30pm 20.7 ESE 11 14 1017.5 - 0.0 - Partly cloudy 10 - - - -
25/06:00pm 20.9 ESE 14 19 1016.9 R 0.0 Haze Mostly cloudy 20 - - - -
25/05:30pm 21.3 ESE 14 18 1016.6 - 0.0 - Mostly clear 10 - - - -
25/05:00pm 21.2 ESE 15 18 1016.3 - 0.0 - Mostly clear 10 - - - -
25/04:30pm 21.8 ESE 14 17 1016.4 - 0.0 - Mostly clear 10 - - - -
25/04:00pm 22.2 E 15 18 1016.3 - 0.0 - Mostly clear 10 - - - -
25/03:30pm 22.1 SE 14 17 1016.1 - 0.0 - Mostly clear 10 - - - -
25/03:00pm 21.8 SE 12 17 1016.4 R 0.0 Haze Partly cloudy 20 - - - -
25/02:30pm 21.7 SE 13 16 1016.5 - 0.0 - Mostly clear 10 - - - -
25/02:00pm 21.4 SE 13 16 1016.6 - 0.0 - Mostly clear 10 - - - -
25/01:30pm 22.0 SE 13 15 1016.5 - 0.0 - Mostly clear 10 - - - -
25/01:00pm 21.5 SE 13 17 1016.4 - 0.0 - Mostly clear 10 - - - -
25/12:30pm 20.9 SSE 16 20 1016.2 - 0.0 - Mostly clear 10 - - - -
25/12:00pm 20.8 S 16 20 1016.1 R 0.0 Haze Mostly cloudy 15 - - - -
25/11:30am 20.9 S 18 22 1015.7 - 0.0 - Mostly clear 10 - - - -
25/11:00am 21.0 S 18 23 1015.6 - 0.0 - Mostly clear 10 - - - -
25/10:30am 21.1 S 21 26 1015.1 - 0.0 - Mostly clear 10 - - - -
25/10:07am 23.6 S 23 28 1014.6 - 0.0 - Mostly clear 10 - - - -
25/10:00am 23.9 SW 17 21 1014.4 - 0.0 - Mostly clear 10 - - - -
25/09:30am 23.9 SW 14 18 1013.8 - 0.0 - - 10 - - - -
25/09:00am 23.9 SW 17 21 1013.1 R 2.4 Fine Mostly cloudy 30 - - - -
25/08:30am 24.0 SW 10 14 1012.4 - 2.4 - - 10 - - - -
25/08:00am 24.3 W 6 8 1011.6 - 2.4 - - 10 - - - -
25/07:30am 24.5 W 7 8 1011.0 - 2.4 - Mostly clear 10 - - - -
25/07:00am 23.6 WSW 8 10 1010.2 - 2.4 - Mostly clear 10 - - - -
25/06:30am 24.3 W 8 9 1009.6 - 2.4 Rain Mostly clear 10 - - - -
25/06:00am 24.3 NW 10 13 1009.2 R 2.4 Fine Cloudy 25 - - - -
25/05:30am 24.2 N 11 14 1007.8 - 2.4 - - 10 - - - -
25/05:00am 24.1 NW 12 17 1007.6 - 2.4 - - 10 - - - -
25/04:30am 24.1 NNW 17 19 1007.6 - 2.4 - Partly cloudy 10 - - - -
25/04:00am 24.2 NNW 15 20 1007.3 - 2.4 - Cloudy 10 - - - -
25/03:30am 23.8 NW 15 17 1007.5 - 2.4 - - 10 - - - -
25/03:00am 23.2 N 13 16 1006.8 F 2.4 Rain Cloudy 20 - - - -
25/02:30am 23.3 NNW 15 18 1007.7 - 2.2 Rain Partly cloudy 10 - - - -
25/02:00am 23.6 NNW 14 17 1008.3 - 2.2 - Partly cloudy 10 - - - -
25/01:30am 24.1 NNW 11 14 1008.4 - 1.8 Rain Partly cloudy 10 - - - -
25/01:00am 23.8 NW 8 13 1008.6 - 1.6 - Partly cloudy 10 - - - -
25/12:30am 23.7 NNW 9 12 1008.5 - 1.6 - Partly cloudy 10 - - - -
25/12:00am 23.3 N 8 10 1008.5 F 1.6 Distant precip. Cloudy 18 - - - -
 
Date/Time
EDT
Temp

°C
Wind Pressure Rain
since 9am
mm
Weather Cloud Vis
km
Sea
Height
m
Swell
Dir
 
Speed
knots
Gust
knots
hPa Trend Height
m
Period
s
Dir
24/11:30pm 23.6 N 7 9 1008.9 - 1.6 Rain Cloudy 10 - - - -
24/11:00pm 23.8 NNW 7 9 1009.0 - 1.6 - - 10 - - - -
24/10:30pm 23.2 W 2 11 1009.2 - 1.6 - Partly cloudy 10 - - - -
24/10:00pm 23.1 CALM 0 2 1009.3 - 1.6 - Mostly clear 10 - - - -
24/09:30pm 23.1 S 2 5 1009.0 - 1.4 Rain Mostly clear 10 - - - -
24/09:00pm 23.7 S 4 5 1009.0 F 1.4 Haze Cloudy 20 - - - -
24/08:30pm 22.7 SSE 2 4 1008.2 - 1.4 - - 10 - - - -
24/08:00pm 22.7 S 3 4 1008.5 - 1.4 - - 10 - - - -
24/07:30pm 22.6 S 5 7 1008.0 - 1.4 - - 10 - - - -

Other Formats:

Comma delimited format used in spreadsheet applications
http://www.bom.gov.au/fwo/IDN60701/IDN60701.94767.axf

JavaScript Object Notation format (JSON) in row-major order
http://www.bom.gov.au/fwo/IDN60701/IDN60701.94767.json